sensor_id;sensor_type;location;lat;lon;timestamp;P1;durP1;ratioP1;P2;durP2;ratioP2
77573;SDS011;66710;48.868;9.080;2023-05-17T00:00:07;5.40;;;1.70;;
77573;SDS011;66710;48.868;9.080;2023-05-17T00:02:34;2.88;;;1.70;;
77573;SDS011;66710;48.868;9.080;2023-05-17T00:04:59;3.70;;;1.50;;
77573;SDS011;66710;48.868;9.080;2023-05-17T00:07:26;3.70;;;1.48;;
77573;SDS011;66710;48.868;9.080;2023-05-17T00:09:51;4.50;;;1.60;;
77573;SDS011;66710;48.868;9.080;2023-05-17T00:12:16;2.72;;;1.60;;
77573;SDS011;66710;48.868;9.080;2023-05-17T00:14:42;4.65;;;1.70;;
77573;SDS011;66710;48.868;9.080;2023-05-17T00:17:07;4.88;;;1.75;;
77573;SDS011;66710;48.868;9.080;2023-05-17T00:19:33;2.30;;;1.38;;
77573;SDS011;66710;48.868;9.080;2023-05-17T00:21:58;3.05;;;1.52;;
77573;SDS011;66710;48.868;9.080;2023-05-17T00:24:23;4.68;;;1.80;;
77573;SDS011;66710;48.868;9.080;2023-05-17T00:26:50;5.00;;;1.65;;
77573;SDS011;66710;48.868;9.080;2023-05-17T00:29:15;3.38;;;1.50;;
77573;SDS011;66710;48.868;9.080;2023-05-17T00:31:41;5.57;;;1.60;;
77573;SDS011;66710;48.868;9.080;2023-05-17T00:34:06;4.60;;;1.58;;
77573;SDS011;66710;48.868;9.080;2023-05-17T00:36:31;3.33;;;1.60;;
77573;SDS011;66710;48.868;9.080;2023-05-17T00:38:57;5.28;;;1.80;;
77573;SDS011;66710;48.868;9.080;2023-05-17T00:41:22;3.17;;;1.50;;
77573;SDS011;66710;48.868;9.080;2023-05-17T00:43:48;4.32;;;1.65;;
77573;SDS011;66710;48.868;9.080;2023-05-17T00:46:13;3.03;;;1.60;;
77573;SDS011;66710;48.868;9.080;2023-05-17T00:48:40;3.25;;;1.70;;
77573;SDS011;66710;48.868;9.080;2023-05-17T00:51:05;5.03;;;2.05;;
77573;SDS011;66710;48.868;9.080;2023-05-17T00:53:31;3.30;;;1.33;;
77573;SDS011;66710;48.868;9.080;2023-05-17T00:55:57;2.80;;;1.50;;
77573;SDS011;66710;48.868;9.080;2023-05-17T00:58:24;4.25;;;1.77;;
77573;SDS011;66710;48.868;9.080;2023-05-17T01:00:50;4.07;;;1.60;;
77573;SDS011;66710;48.868;9.080;2023-05-17T01:03:15;4.65;;;1.80;;
77573;SDS011;66710;48.868;9.080;2023-05-17T01:05:41;3.03;;;1.80;;
77573;SDS011;66710;48.868;9.080;2023-05-17T01:08:06;4.38;;;1.60;;
77573;SDS011;66710;48.868;9.080;2023-05-17T01:13:46;3.22;;;1.70;;
77573;SDS011;66710;48.868;9.080;2023-05-17T01:16:26;5.13;;;1.70;;
77573;SDS011;66710;48.868;9.080;2023-05-17T01:21:56;3.30;;;1.73;;
77573;SDS011;66710;48.868;9.080;2023-05-17T01:24:29;3.42;;;1.55;;
77573;SDS011;66710;48.868;9.080;2023-05-17T01:27:02;4.47;;;1.85;;
77573;SDS011;66710;48.868;9.080;2023-05-17T01:29:29;4.47;;;1.67;;
77573;SDS011;66710;48.868;9.080;2023-05-17T01:31:57;3.25;;;1.60;;
77573;SDS011;66710;48.868;9.080;2023-05-17T01:34:24;3.40;;;1.70;;
77573;SDS011;66710;48.868;9.080;2023-05-17T01:36:53;4.10;;;1.90;;
77573;SDS011;66710;48.868;9.080;2023-05-17T01:39:19;2.40;;;1.50;;
77573;SDS011;66710;48.868;9.080;2023-05-17T01:41:53;2.20;;;1.52;;
77573;SDS011;66710;48.868;9.080;2023-05-17T01:47:01;2.42;;;1.58;;
77573;SDS011;66710;48.868;9.080;2023-05-17T01:49:37;4.78;;;1.60;;
77573;SDS011;66710;48.868;9.080;2023-05-17T01:52:06;3.20;;;1.75;;
77573;SDS011;66710;48.868;9.080;2023-05-17T01:54:37;3.08;;;1.80;;
77573;SDS011;66710;48.868;9.080;2023-05-17T01:57:07;4.00;;;1.90;;
77573;SDS011;66710;48.868;9.080;2023-05-17T01:59:34;3.50;;;1.60;;
77573;SDS011;66710;48.868;9.080;2023-05-17T02:02:02;3.65;;;1.77;;
77573;SDS011;66710;48.868;9.080;2023-05-17T02:04:33;3.03;;;1.60;;
77573;SDS011;66710;48.868;9.080;2023-05-17T02:07:00;5.93;;;1.70;;
77573;SDS011;66710;48.868;9.080;2023-05-17T02:09:26;3.58;;;1.50;;
77573;SDS011;66710;48.868;9.080;2023-05-17T02:11:51;4.53;;;1.48;;
77573;SDS011;66710;48.868;9.080;2023-05-17T02:14:17;4.95;;;1.58;;
77573;SDS011;66710;48.868;9.080;2023-05-17T02:16:43;3.95;;;1.80;;
77573;SDS011;66710;48.868;9.080;2023-05-17T02:19:08;4.13;;;1.70;;
77573;SDS011;66710;48.868;9.080;2023-05-17T02:21:34;3.40;;;1.55;;
77573;SDS011;66710;48.868;9.080;2023-05-17T02:23:59;4.43;;;2.00;;
77573;SDS011;66710;48.868;9.080;2023-05-17T02:26:25;2.63;;;1.40;;
77573;SDS011;66710;48.868;9.080;2023-05-17T02:28:51;5.10;;;1.65;;
77573;SDS011;66710;48.868;9.080;2023-05-17T02:31:17;4.57;;;1.60;;
77573;SDS011;66710;48.868;9.080;2023-05-17T02:33:42;4.25;;;1.67;;
77573;SDS011;66710;48.868;9.080;2023-05-17T02:36:08;3.65;;;2.13;;
77573;SDS011;66710;48.868;9.080;2023-05-17T02:38:33;3.58;;;1.65;;
77573;SDS011;66710;48.868;9.080;2023-05-17T02:40:59;5.68;;;2.17;;
77573;SDS011;66710;48.868;9.080;2023-05-17T02:43:24;3.40;;;1.70;;
77573;SDS011;66710;48.868;9.080;2023-05-17T02:45:49;4.15;;;1.80;;
77573;SDS011;66710;48.868;9.080;2023-05-17T02:48:15;6.05;;;1.70;;
77573;SDS011;66710;48.868;9.080;2023-05-17T02:50:40;5.03;;;1.95;;
77573;SDS011;66710;48.868;9.080;2023-05-17T02:53:05;2.75;;;1.70;;
77573;SDS011;66710;48.868;9.080;2023-05-17T02:55:31;4.05;;;1.80;;
77573;SDS011;66710;48.868;9.080;2023-05-17T02:57:56;3.03;;;1.60;;
77573;SDS011;66710;48.868;9.080;2023-05-17T03:00:21;5.68;;;1.80;;
77573;SDS011;66710;48.868;9.080;2023-05-17T03:02:47;6.65;;;1.63;;
77573;SDS011;66710;48.868;9.080;2023-05-17T03:05:12;9.25;;;1.92;;
77573;SDS011;66710;48.868;9.080;2023-05-17T03:07:37;5.95;;;1.80;;
77573;SDS011;66710;48.868;9.080;2023-05-17T03:10:03;3.38;;;1.70;;
77573;SDS011;66710;48.868;9.080;2023-05-17T03:12:29;4.97;;;1.70;;
77573;SDS011;66710;48.868;9.080;2023-05-17T03:14:54;3.22;;;1.70;;
77573;SDS011;66710;48.868;9.080;2023-05-17T03:17:19;3.97;;;1.52;;
77573;SDS011;66710;48.868;9.080;2023-05-17T03:19:45;4.50;;;1.70;;
77573;SDS011;66710;48.868;9.080;2023-05-17T03:22:10;5.15;;;1.90;;
77573;SDS011;66710;48.868;9.080;2023-05-17T03:24:36;9.57;;;2.17;;
77573;SDS011;66710;48.868;9.080;2023-05-17T03:27:01;4.00;;;1.58;;
77573;SDS011;66710;48.868;9.080;2023-05-17T03:29:26;5.07;;;2.17;;
77573;SDS011;66710;48.868;9.080;2023-05-17T03:31:52;4.32;;;1.70;;
77573;SDS011;66710;48.868;9.080;2023-05-17T03:34:17;4.10;;;1.73;;
77573;SDS011;66710;48.868;9.080;2023-05-17T03:36:43;3.10;;;1.60;;
77573;SDS011;66710;48.868;9.080;2023-05-17T03:39:08;3.00;;;1.80;;
77573;SDS011;66710;48.868;9.080;2023-05-17T03:41:33;5.70;;;2.03;;
77573;SDS011;66710;48.868;9.080;2023-05-17T03:43:59;4.32;;;1.90;;
77573;SDS011;66710;48.868;9.080;2023-05-17T03:46:25;3.90;;;1.65;;
77573;SDS011;66710;48.868;9.080;2023-05-17T03:48:50;5.53;;;1.90;;
77573;SDS011;66710;48.868;9.080;2023-05-17T03:51:16;2.90;;;1.73;;
77573;SDS011;66710;48.868;9.080;2023-05-17T03:53:41;5.43;;;2.17;;
77573;SDS011;66710;48.868;9.080;2023-05-17T03:56:07;3.30;;;1.70;;
77573;SDS011;66710;48.868;9.080;2023-05-17T03:58:34;4.55;;;1.83;;
77573;SDS011;66710;48.868;9.080;2023-05-17T04:00:59;5.40;;;1.90;;
77573;SDS011;66710;48.868;9.080;2023-05-17T04:03:25;4.15;;;1.67;;
77573;SDS011;66710;48.868;9.080;2023-05-17T04:05:50;4.50;;;2.00;;
77573;SDS011;66710;48.868;9.080;2023-05-17T04:08:15;4.95;;;2.00;;
77573;SDS011;66710;48.868;9.080;2023-05-17T04:10:41;4.47;;;1.92;;
77573;SDS011;66710;48.868;9.080;2023-05-17T04:13:07;3.63;;;1.70;;
77573;SDS011;66710;48.868;9.080;2023-05-17T04:15:33;3.55;;;2.00;;
77573;SDS011;66710;48.868;9.080;2023-05-17T04:17:59;5.97;;;2.15;;
77573;SDS011;66710;48.868;9.080;2023-05-17T04:20:25;4.60;;;1.90;;
77573;SDS011;66710;48.868;9.080;2023-05-17T04:22:50;4.25;;;1.75;;
77573;SDS011;66710;48.868;9.080;2023-05-17T04:25:16;3.97;;;1.80;;
77573;SDS011;66710;48.868;9.080;2023-05-17T04:27:42;3.78;;;1.77;;
77573;SDS011;66710;48.868;9.080;2023-05-17T04:30:08;4.22;;;1.80;;
77573;SDS011;66710;48.868;9.080;2023-05-17T04:32:34;6.25;;;2.20;;
77573;SDS011;66710;48.868;9.080;2023-05-17T04:35:00;5.05;;;1.90;;
77573;SDS011;66710;48.868;9.080;2023-05-17T04:37:25;8.30;;;1.75;;
77573;SDS011;66710;48.868;9.080;2023-05-17T04:39:51;5.03;;;2.00;;
77573;SDS011;66710;48.868;9.080;2023-05-17T04:42:17;4.85;;;2.10;;
77573;SDS011;66710;48.868;9.080;2023-05-17T04:44:42;3.45;;;2.10;;
77573;SDS011;66710;48.868;9.080;2023-05-17T04:47:08;4.72;;;2.10;;
77573;SDS011;66710;48.868;9.080;2023-05-17T04:49:34;6.45;;;1.92;;
77573;SDS011;66710;48.868;9.080;2023-05-17T04:51:59;5.13;;;2.22;;
77573;SDS011;66710;48.868;9.080;2023-05-17T04:54:24;5.80;;;2.25;;
77573;SDS011;66710;48.868;9.080;2023-05-17T04:56:50;4.30;;;2.05;;
77573;SDS011;66710;48.868;9.080;2023-05-17T04:59:15;6.13;;;2.08;;
77573;SDS011;66710;48.868;9.080;2023-05-17T05:01:41;5.75;;;2.00;;
77573;SDS011;66710;48.868;9.080;2023-05-17T05:04:06;5.88;;;2.22;;
77573;SDS011;66710;48.868;9.080;2023-05-17T05:06:32;5.55;;;2.05;;
77573;SDS011;66710;48.868;9.080;2023-05-17T05:08:58;4.55;;;2.20;;
77573;SDS011;66710;48.868;9.080;2023-05-17T05:11:25;6.18;;;2.05;;
77573;SDS011;66710;48.868;9.080;2023-05-17T05:13:50;4.68;;;2.08;;
77573;SDS011;66710;48.868;9.080;2023-05-17T05:16:15;6.43;;;2.30;;
77573;SDS011;66710;48.868;9.080;2023-05-17T05:18:41;6.95;;;2.00;;
77573;SDS011;66710;48.868;9.080;2023-05-17T05:21:06;3.78;;;2.00;;
77573;SDS011;66710;48.868;9.080;2023-05-17T05:23:32;7.28;;;2.17;;
77573;SDS011;66710;48.868;9.080;2023-05-17T05:25:57;5.13;;;2.10;;
77573;SDS011;66710;48.868;9.080;2023-05-17T05:28:22;5.13;;;2.20;;
77573;SDS011;66710;48.868;9.080;2023-05-17T05:30:48;4.18;;;2.10;;
77573;SDS011;66710;48.868;9.080;2023-05-17T05:33:13;3.72;;;1.90;;
77573;SDS011;66710;48.868;9.080;2023-05-17T05:35:38;4.97;;;2.00;;
77573;SDS011;66710;48.868;9.080;2023-05-17T05:38:04;4.22;;;2.13;;
77573;SDS011;66710;48.868;9.080;2023-05-17T05:40:29;6.07;;;2.10;;
77573;SDS011;66710;48.868;9.080;2023-05-17T05:42:55;6.00;;;2.00;;
77573;SDS011;66710;48.868;9.080;2023-05-17T05:45:20;6.18;;;2.47;;
77573;SDS011;66710;48.868;9.080;2023-05-17T05:47:46;5.05;;;2.25;;
77573;SDS011;66710;48.868;9.080;2023-05-17T05:50:11;3.70;;;1.92;;
77573;SDS011;66710;48.868;9.080;2023-05-17T05:52:36;5.25;;;2.60;;
77573;SDS011;66710;48.868;9.080;2023-05-17T05:55:02;5.55;;;2.45;;
77573;SDS011;66710;48.868;9.080;2023-05-17T05:57:28;5.78;;;2.45;;
77573;SDS011;66710;48.868;9.080;2023-05-17T05:59:53;6.80;;;2.15;;
77573;SDS011;66710;48.868;9.080;2023-05-17T06:02:18;4.43;;;2.30;;
77573;SDS011;66710;48.868;9.080;2023-05-17T06:04:47;5.10;;;2.20;;
77573;SDS011;66710;48.868;9.080;2023-05-17T06:07:13;5.13;;;2.30;;
77573;SDS011;66710;48.868;9.080;2023-05-17T06:09:39;5.38;;;2.35;;
77573;SDS011;66710;48.868;9.080;2023-05-17T06:12:05;5.93;;;2.03;;
77573;SDS011;66710;48.868;9.080;2023-05-17T06:14:31;6.45;;;2.30;;
77573;SDS011;66710;48.868;9.080;2023-05-17T06:16:56;5.95;;;2.10;;
77573;SDS011;66710;48.868;9.080;2023-05-17T06:19:21;5.35;;;2.17;;
77573;SDS011;66710;48.868;9.080;2023-05-17T06:21:47;5.75;;;2.20;;
77573;SDS011;66710;48.868;9.080;2023-05-17T06:24:12;8.82;;;2.60;;
77573;SDS011;66710;48.868;9.080;2023-05-17T06:26:38;4.28;;;2.20;;
77573;SDS011;66710;48.868;9.080;2023-05-17T06:29:04;6.28;;;2.63;;
77573;SDS011;66710;48.868;9.080;2023-05-17T06:31:30;4.90;;;2.58;;
77573;SDS011;66710;48.868;9.080;2023-05-17T06:33:55;5.38;;;2.22;;
77573;SDS011;66710;48.868;9.080;2023-05-17T06:36:21;6.80;;;2.25;;
77573;SDS011;66710;48.868;9.080;2023-05-17T06:38:47;7.10;;;2.17;;
77573;SDS011;66710;48.868;9.080;2023-05-17T06:41:12;7.22;;;3.03;;
77573;SDS011;66710;48.868;9.080;2023-05-17T06:43:37;8.35;;;2.70;;
77573;SDS011;66710;48.868;9.080;2023-05-17T06:46:03;7.57;;;2.58;;
77573;SDS011;66710;48.868;9.080;2023-05-17T06:48:28;6.40;;;2.08;;
77573;SDS011;66710;48.868;9.080;2023-05-17T06:50:53;5.70;;;2.65;;
77573;SDS011;66710;48.868;9.080;2023-05-17T06:53:19;6.45;;;2.50;;
77573;SDS011;66710;48.868;9.080;2023-05-17T06:55:44;5.10;;;2.30;;
77573;SDS011;66710;48.868;9.080;2023-05-17T06:58:10;6.85;;;2.50;;
77573;SDS011;66710;48.868;9.080;2023-05-17T07:00:35;6.40;;;2.60;;
77573;SDS011;66710;48.868;9.080;2023-05-17T07:03:01;6.07;;;2.75;;
77573;SDS011;66710;48.868;9.080;2023-05-17T07:05:26;7.82;;;2.75;;
77573;SDS011;66710;48.868;9.080;2023-05-17T07:07:53;6.43;;;2.42;;
77573;SDS011;66710;48.868;9.080;2023-05-17T07:10:18;5.93;;;2.78;;
77573;SDS011;66710;48.868;9.080;2023-05-17T07:12:43;6.10;;;3.13;;
77573;SDS011;66710;48.868;9.080;2023-05-17T07:15:09;5.85;;;2.90;;
77573;SDS011;66710;48.868;9.080;2023-05-17T07:17:35;7.03;;;2.80;;
77573;SDS011;66710;48.868;9.080;2023-05-17T07:20:01;6.82;;;2.70;;
77573;SDS011;66710;48.868;9.080;2023-05-17T07:22:26;6.30;;;2.47;;
77573;SDS011;66710;48.868;9.080;2023-05-17T07:24:52;6.25;;;3.00;;
77573;SDS011;66710;48.868;9.080;2023-05-17T07:27:17;7.70;;;3.03;;
77573;SDS011;66710;48.868;9.080;2023-05-17T07:29:42;9.35;;;2.80;;
77573;SDS011;66710;48.868;9.080;2023-05-17T07:32:08;8.15;;;3.22;;
77573;SDS011;66710;48.868;9.080;2023-05-17T07:34:34;6.30;;;2.70;;
77573;SDS011;66710;48.868;9.080;2023-05-17T07:37:00;4.18;;;2.55;;
77573;SDS011;66710;48.868;9.080;2023-05-17T07:39:26;9.40;;;2.90;;
77573;SDS011;66710;48.868;9.080;2023-05-17T07:41:51;5.88;;;2.53;;
77573;SDS011;66710;48.868;9.080;2023-05-17T07:44:16;7.75;;;2.88;;
77573;SDS011;66710;48.868;9.080;2023-05-17T07:46:42;6.25;;;2.80;;
77573;SDS011;66710;48.868;9.080;2023-05-17T07:49:07;8.02;;;2.70;;
77573;SDS011;66710;48.868;9.080;2023-05-17T07:51:33;5.78;;;2.83;;
77573;SDS011;66710;48.868;9.080;2023-05-17T07:53:59;6.78;;;3.15;;
77573;SDS011;66710;48.868;9.080;2023-05-17T07:56:27;6.05;;;2.60;;
77573;SDS011;66710;48.868;9.080;2023-05-17T07:58:52;7.30;;;3.03;;
77573;SDS011;66710;48.868;9.080;2023-05-17T08:01:18;5.70;;;2.70;;
77573;SDS011;66710;48.868;9.080;2023-05-17T08:03:43;6.93;;;3.20;;
77573;SDS011;66710;48.868;9.080;2023-05-17T08:06:12;7.18;;;2.92;;
77573;SDS011;66710;48.868;9.080;2023-05-17T08:08:41;7.25;;;3.50;;
77573;SDS011;66710;48.868;9.080;2023-05-17T08:11:07;7.32;;;3.28;;
77573;SDS011;66710;48.868;9.080;2023-05-17T08:13:33;7.47;;;2.95;;
77573;SDS011;66710;48.868;9.080;2023-05-17T08:15:59;6.60;;;3.05;;
77573;SDS011;66710;48.868;9.080;2023-05-17T08:18:28;6.55;;;3.13;;
77573;SDS011;66710;48.868;9.080;2023-05-17T08:20:54;7.05;;;3.10;;
77573;SDS011;66710;48.868;9.080;2023-05-17T08:23:19;5.78;;;2.80;;
77573;SDS011;66710;48.868;9.080;2023-05-17T08:25:44;6.35;;;2.95;;
77573;SDS011;66710;48.868;9.080;2023-05-17T08:28:10;7.07;;;3.58;;
77573;SDS011;66710;48.868;9.080;2023-05-17T08:30:35;6.00;;;2.70;;
77573;SDS011;66710;48.868;9.080;2023-05-17T08:33:01;4.43;;;2.60;;
77573;SDS011;66710;48.868;9.080;2023-05-17T08:35:26;6.03;;;3.20;;
77573;SDS011;66710;48.868;9.080;2023-05-17T08:37:52;5.28;;;2.70;;
77573;SDS011;66710;48.868;9.080;2023-05-17T08:40:19;6.75;;;2.92;;
77573;SDS011;66710;48.868;9.080;2023-05-17T08:42:45;5.30;;;3.00;;
77573;SDS011;66710;48.868;9.080;2023-05-17T08:45:11;5.18;;;2.83;;
77573;SDS011;66710;48.868;9.080;2023-05-17T08:47:38;5.47;;;2.70;;
77573;SDS011;66710;48.868;9.080;2023-05-17T08:50:06;5.07;;;2.50;;
77573;SDS011;66710;48.868;9.080;2023-05-17T08:52:32;5.70;;;2.53;;
77573;SDS011;66710;48.868;9.080;2023-05-17T08:54:59;6.10;;;2.65;;
77573;SDS011;66710;48.868;9.080;2023-05-17T08:57:27;5.65;;;2.60;;
77573;SDS011;66710;48.868;9.080;2023-05-17T08:59:55;9.00;;;2.80;;
77573;SDS011;66710;48.868;9.080;2023-05-17T09:02:23;7.97;;;3.17;;
77573;SDS011;66710;48.868;9.080;2023-05-17T09:04:49;5.50;;;2.63;;
77573;SDS011;66710;48.868;9.080;2023-05-17T09:07:22;4.85;;;2.67;;
77573;SDS011;66710;48.868;9.080;2023-05-17T09:09:54;6.53;;;2.70;;
77573;SDS011;66710;48.868;9.080;2023-05-17T09:12:20;6.25;;;2.65;;
77573;SDS011;66710;48.868;9.080;2023-05-17T09:14:46;6.35;;;2.67;;
77573;SDS011;66710;48.868;9.080;2023-05-17T09:17:13;5.57;;;2.53;;
77573;SDS011;66710;48.868;9.080;2023-05-17T09:19:47;5.30;;;2.90;;
77573;SDS011;66710;48.868;9.080;2023-05-17T09:22:16;6.25;;;2.70;;
77573;SDS011;66710;48.868;9.080;2023-05-17T09:24:42;6.38;;;2.70;;
77573;SDS011;66710;48.868;9.080;2023-05-17T09:27:08;5.45;;;2.67;;
77573;SDS011;66710;48.868;9.080;2023-05-17T09:29:38;5.72;;;2.53;;
77573;SDS011;66710;48.868;9.080;2023-05-17T09:32:13;5.88;;;2.45;;
77573;SDS011;66710;48.868;9.080;2023-05-17T09:34:40;6.88;;;2.70;;
77573;SDS011;66710;48.868;9.080;2023-05-17T09:37:16;6.07;;;2.50;;
77573;SDS011;66710;48.868;9.080;2023-05-17T09:39:43;6.72;;;2.50;;
77573;SDS011;66710;48.868;9.080;2023-05-17T09:42:13;6.38;;;2.50;;
77573;SDS011;66710;48.868;9.080;2023-05-17T09:47:25;5.13;;;2.40;;
77573;SDS011;66710;48.868;9.080;2023-05-17T09:49:53;6.47;;;2.70;;
77573;SDS011;66710;48.868;9.080;2023-05-17T09:52:22;5.95;;;2.60;;
77573;SDS011;66710;48.868;9.080;2023-05-17T09:54:52;7.43;;;2.67;;
77573;SDS011;66710;48.868;9.080;2023-05-17T09:57:18;6.63;;;2.53;;
77573;SDS011;66710;48.868;9.080;2023-05-17T09:59:44;6.78;;;2.90;;
77573;SDS011;66710;48.868;9.080;2023-05-17T10:02:12;6.13;;;2.80;;
77573;SDS011;66710;48.868;9.080;2023-05-17T10:04:49;8.55;;;2.75;;
77573;SDS011;66710;48.868;9.080;2023-05-17T10:07:19;6.72;;;2.80;;
77573;SDS011;66710;48.868;9.080;2023-05-17T10:09:48;7.75;;;3.70;;
77573;SDS011;66710;48.868;9.080;2023-05-17T10:12:17;6.13;;;2.72;;
77573;SDS011;66710;48.868;9.080;2023-05-17T10:14:45;5.57;;;2.90;;
77573;SDS011;66710;48.868;9.080;2023-05-17T10:17:11;7.28;;;3.10;;
77573;SDS011;66710;48.868;9.080;2023-05-17T10:19:38;6.40;;;3.13;;
77573;SDS011;66710;48.868;9.080;2023-05-17T10:22:04;5.40;;;2.63;;
77573;SDS011;66710;48.868;9.080;2023-05-17T10:24:30;5.55;;;2.80;;
77573;SDS011;66710;48.868;9.080;2023-05-17T10:26:56;5.05;;;2.60;;
77573;SDS011;66710;48.868;9.080;2023-05-17T10:29:22;8.82;;;2.97;;
77573;SDS011;66710;48.868;9.080;2023-05-17T10:31:49;5.72;;;2.58;;
77573;SDS011;66710;48.868;9.080;2023-05-17T10:34:18;6.47;;;2.60;;
77573;SDS011;66710;48.868;9.080;2023-05-17T10:36:44;7.13;;;2.75;;
77573;SDS011;66710;48.868;9.080;2023-05-17T10:39:10;6.65;;;2.80;;
77573;SDS011;66710;48.868;9.080;2023-05-17T10:41:36;6.50;;;2.63;;
77573;SDS011;66710;48.868;9.080;2023-05-17T10:44:04;8.52;;;2.80;;
77573;SDS011;66710;48.868;9.080;2023-05-17T10:46:32;6.55;;;2.60;;
77573;SDS011;66710;48.868;9.080;2023-05-17T10:48:58;7.47;;;3.03;;
77573;SDS011;66710;48.868;9.080;2023-05-17T10:51:26;5.43;;;2.80;;
77573;SDS011;66710;48.868;9.080;2023-05-17T10:56:31;5.13;;;2.83;;
77573;SDS011;66710;48.868;9.080;2023-05-17T11:01:52;6.45;;;2.40;;
77573;SDS011;66710;48.868;9.080;2023-05-17T11:04:21;7.07;;;2.83;;
77573;SDS011;66710;48.868;9.080;2023-05-17T11:06:48;6.07;;;2.67;;
77573;SDS011;66710;48.868;9.080;2023-05-17T11:09:22;5.15;;;2.70;;
77573;SDS011;66710;48.868;9.080;2023-05-17T11:12:10;5.13;;;2.40;;
77573;SDS011;66710;48.868;9.080;2023-05-17T11:22:26;5.43;;;2.50;;
77573;SDS011;66710;48.868;9.080;2023-05-17T11:24:53;6.13;;;2.63;;
77573;SDS011;66710;48.868;9.080;2023-05-17T11:27:21;7.40;;;3.47;;
77573;SDS011;66710;48.868;9.080;2023-05-17T11:29:54;5.57;;;2.50;;
77573;SDS011;66710;48.868;9.080;2023-05-17T11:32:30;6.32;;;2.58;;
77573;SDS011;66710;48.868;9.080;2023-05-17T11:34:59;4.70;;;2.30;;
77573;SDS011;66710;48.868;9.080;2023-05-17T11:37:28;7.15;;;2.22;;
77573;SDS011;66710;48.868;9.080;2023-05-17T11:40:06;5.47;;;2.30;;
77573;SDS011;66710;48.868;9.080;2023-05-17T11:42:33;5.90;;;2.58;;
77573;SDS011;66710;48.868;9.080;2023-05-17T11:45:01;5.88;;;2.30;;
77573;SDS011;66710;48.868;9.080;2023-05-17T11:47:28;4.07;;;2.30;;
77573;SDS011;66710;48.868;9.080;2023-05-17T11:49:54;6.20;;;2.58;;
77573;SDS011;66710;48.868;9.080;2023-05-17T11:52:20;5.45;;;2.40;;
77573;SDS011;66710;48.868;9.080;2023-05-17T11:54:49;7.13;;;2.60;;
77573;SDS011;66710;48.868;9.080;2023-05-17T11:57:16;5.05;;;2.38;;
77573;SDS011;66710;48.868;9.080;2023-05-17T11:59:44;7.28;;;2.55;;
77573;SDS011;66710;48.868;9.080;2023-05-17T12:02:09;4.72;;;2.70;;
77573;SDS011;66710;48.868;9.080;2023-05-17T12:04:50;4.47;;;2.40;;
77573;SDS011;66710;48.868;9.080;2023-05-17T12:07:16;6.13;;;3.00;;
77573;SDS011;66710;48.868;9.080;2023-05-17T12:09:43;7.80;;;2.80;;
77573;SDS011;66710;48.868;9.080;2023-05-17T12:12:10;8.10;;;3.15;;
77573;SDS011;66710;48.868;9.080;2023-05-17T12:14:35;6.18;;;2.90;;
77573;SDS011;66710;48.868;9.080;2023-05-17T12:17:02;5.38;;;2.47;;
77573;SDS011;66710;48.868;9.080;2023-05-17T12:19:31;7.25;;;2.70;;
77573;SDS011;66710;48.868;9.080;2023-05-17T12:22:06;6.75;;;2.47;;
77573;SDS011;66710;48.868;9.080;2023-05-17T12:24:36;6.47;;;2.67;;
77573;SDS011;66710;48.868;9.080;2023-05-17T12:27:06;5.70;;;2.60;;
77573;SDS011;66710;48.868;9.080;2023-05-17T12:29:32;5.38;;;2.60;;
77573;SDS011;66710;48.868;9.080;2023-05-17T12:31:57;5.00;;;2.42;;
77573;SDS011;66710;48.868;9.080;2023-05-17T12:34:24;6.22;;;2.50;;
77573;SDS011;66710;48.868;9.080;2023-05-17T12:36:50;6.05;;;2.90;;
77573;SDS011;66710;48.868;9.080;2023-05-17T12:39:17;4.95;;;2.40;;
77573;SDS011;66710;48.868;9.080;2023-05-17T12:41:47;5.50;;;2.40;;
77573;SDS011;66710;48.868;9.080;2023-05-17T12:44:14;5.07;;;2.50;;
77573;SDS011;66710;48.868;9.080;2023-05-17T12:46:40;5.65;;;2.78;;
77573;SDS011;66710;48.868;9.080;2023-05-17T12:49:06;5.63;;;2.67;;
77573;SDS011;66710;48.868;9.080;2023-05-17T12:51:44;5.95;;;2.67;;
77573;SDS011;66710;48.868;9.080;2023-05-17T12:54:11;6.13;;;3.17;;
77573;SDS011;66710;48.868;9.080;2023-05-17T12:56:40;7.28;;;2.90;;
77573;SDS011;66710;48.868;9.080;2023-05-17T13:01:35;7.43;;;2.70;;
77573;SDS011;66710;48.868;9.080;2023-05-17T13:04:03;7.03;;;2.70;;
77573;SDS011;66710;48.868;9.080;2023-05-17T13:06:28;8.13;;;2.92;;
77573;SDS011;66710;48.868;9.080;2023-05-17T13:09:06;5.07;;;2.78;;
77573;SDS011;66710;48.868;9.080;2023-05-17T13:11:32;6.30;;;2.90;;
77573;SDS011;66710;48.868;9.080;2023-05-17T13:14:04;4.53;;;2.45;;
77573;SDS011;66710;48.868;9.080;2023-05-17T13:16:30;5.95;;;2.53;;
77573;SDS011;66710;48.868;9.080;2023-05-17T13:18:55;6.15;;;2.72;;
77573;SDS011;66710;48.868;9.080;2023-05-17T13:21:20;7.10;;;2.83;;
77573;SDS011;66710;48.868;9.080;2023-05-17T13:23:47;6.90;;;2.80;;
77573;SDS011;66710;48.868;9.080;2023-05-17T13:26:14;7.30;;;2.75;;
77573;SDS011;66710;48.868;9.080;2023-05-17T13:28:41;6.93;;;2.90;;
77573;SDS011;66710;48.868;9.080;2023-05-17T13:31:06;6.53;;;2.90;;
77573;SDS011;66710;48.868;9.080;2023-05-17T13:33:32;7.72;;;2.90;;
77573;SDS011;66710;48.868;9.080;2023-05-17T13:35:59;6.90;;;2.85;;
77573;SDS011;66710;48.868;9.080;2023-05-17T13:38:24;6.45;;;2.50;;
77573;SDS011;66710;48.868;9.080;2023-05-17T13:40:50;4.80;;;2.75;;
77573;SDS011;66710;48.868;9.080;2023-05-17T13:43:15;5.32;;;2.70;;
77573;SDS011;66710;48.868;9.080;2023-05-17T13:45:41;7.45;;;3.58;;
77573;SDS011;66710;48.868;9.080;2023-05-17T13:48:06;6.20;;;2.83;;
77573;SDS011;66710;48.868;9.080;2023-05-17T13:50:32;5.45;;;2.65;;
77573;SDS011;66710;48.868;9.080;2023-05-17T13:52:57;5.93;;;2.72;;
77573;SDS011;66710;48.868;9.080;2023-05-17T13:55:23;5.35;;;2.67;;
77573;SDS011;66710;48.868;9.080;2023-05-17T13:57:49;5.78;;;2.60;;
77573;SDS011;66710;48.868;9.080;2023-05-17T14:00:14;5.85;;;2.80;;
77573;SDS011;66710;48.868;9.080;2023-05-17T14:02:40;5.38;;;2.60;;
77573;SDS011;66710;48.868;9.080;2023-05-17T14:05:06;8.95;;;3.47;;
77573;SDS011;66710;48.868;9.080;2023-05-17T14:07:33;6.63;;;2.90;;
77573;SDS011;66710;48.868;9.080;2023-05-17T14:09:59;7.20;;;2.90;;
77573;SDS011;66710;48.868;9.080;2023-05-17T14:12:25;7.85;;;3.08;;
77573;SDS011;66710;48.868;9.080;2023-05-17T14:14:50;6.22;;;2.95;;
77573;SDS011;66710;48.868;9.080;2023-05-17T14:17:15;7.10;;;3.10;;
77573;SDS011;66710;48.868;9.080;2023-05-17T14:19:41;5.80;;;2.90;;
77573;SDS011;66710;48.868;9.080;2023-05-17T14:22:06;8.43;;;3.17;;
77573;SDS011;66710;48.868;9.080;2023-05-17T14:24:32;7.53;;;2.97;;
77573;SDS011;66710;48.868;9.080;2023-05-17T14:26:58;5.30;;;2.67;;
77573;SDS011;66710;48.868;9.080;2023-05-17T14:29:23;5.78;;;2.90;;
77573;SDS011;66710;48.868;9.080;2023-05-17T14:31:49;5.65;;;2.60;;
77573;SDS011;66710;48.868;9.080;2023-05-17T14:34:15;5.60;;;2.80;;
77573;SDS011;66710;48.868;9.080;2023-05-17T14:36:40;5.82;;;2.90;;
77573;SDS011;66710;48.868;9.080;2023-05-17T14:39:05;5.22;;;2.78;;
77573;SDS011;66710;48.868;9.080;2023-05-17T14:41:31;7.40;;;2.97;;
77573;SDS011;66710;48.868;9.080;2023-05-17T14:43:56;7.53;;;2.95;;
77573;SDS011;66710;48.868;9.080;2023-05-17T14:46:22;5.65;;;2.60;;
77573;SDS011;66710;48.868;9.080;2023-05-17T14:48:47;5.70;;;2.72;;
77573;SDS011;66710;48.868;9.080;2023-05-17T14:51:15;6.07;;;2.80;;
77573;SDS011;66710;48.868;9.080;2023-05-17T14:53:41;7.38;;;3.25;;
77573;SDS011;66710;48.868;9.080;2023-05-17T14:56:07;6.57;;;3.38;;
77573;SDS011;66710;48.868;9.080;2023-05-17T14:58:32;5.80;;;2.80;;
77573;SDS011;66710;48.868;9.080;2023-05-17T15:00:58;5.53;;;2.80;;
77573;SDS011;66710;48.868;9.080;2023-05-17T15:03:24;7.15;;;3.17;;
77573;SDS011;66710;48.868;9.080;2023-05-17T15:05:53;5.47;;;2.92;;
77573;SDS011;66710;48.868;9.080;2023-05-17T15:08:19;6.47;;;3.08;;
77573;SDS011;66710;48.868;9.080;2023-05-17T15:10:45;5.38;;;2.67;;